createdAt,value
2019-03-29T00:00:33.917Z,8.86
2019-03-29T00:03:03.608Z,8.88
2019-03-29T00:05:32.957Z,8.81
2019-03-29T00:08:02.367Z,8.82
2019-03-29T00:10:31.739Z,8.89
2019-03-29T00:13:01.114Z,8.94
2019-03-29T00:15:30.567Z,8.78
2019-03-29T00:18:00.187Z,8.78
2019-03-29T00:20:29.539Z,8.82
2019-03-29T00:22:58.879Z,8.82
2019-03-29T00:25:28.360Z,8.82
2019-03-29T00:27:57.804Z,8.89
2019-03-29T00:30:27.266Z,8.91
2019-03-29T00:32:57.875Z,8.89
2019-03-29T00:35:27.502Z,8.82
2019-03-29T00:37:57.290Z,8.70
2019-03-29T00:40:26.706Z,8.76
2019-03-29T00:42:56.144Z,8.69
2019-03-29T00:45:25.570Z,8.80
2019-03-29T00:47:55.392Z,8.81
2019-03-29T00:50:25.425Z,8.87
2019-03-29T00:52:54.829Z,8.82
2019-03-29T00:55:24.250Z,8.81
2019-03-29T00:57:53.852Z,8.77
2019-03-29T01:00:23.414Z,8.75
2019-03-29T01:02:52.795Z,8.79
2019-03-29T01:16:03.869Z,8.64
2019-03-29T01:18:33.313Z,8.61
2019-03-29T01:21:02.772Z,8.71
2019-03-29T01:23:32.149Z,8.76
2019-03-29T01:26:01.549Z,8.76
2019-03-29T01:28:30.985Z,8.63
2019-03-29T01:31:00.451Z,8.76
2019-03-29T01:33:29.970Z,8.66
2019-03-29T01:35:59.357Z,8.71
2019-03-29T01:38:29.110Z,8.66
2019-03-29T01:40:59.371Z,8.55
2019-03-29T01:43:28.761Z,8.61
2019-03-29T01:46:00.282Z,8.68
2019-03-29T01:48:29.755Z,8.62
2019-03-29T01:50:59.532Z,8.60
2019-03-29T01:53:29.034Z,8.63
2019-03-29T01:55:58.359Z,8.56
2019-03-29T01:58:27.726Z,8.62
2019-03-29T02:00:57.073Z,8.66
2019-03-29T02:03:26.423Z,8.61
2019-03-29T02:05:55.894Z,8.65
2019-03-29T02:08:35.744Z,8.68
2019-03-29T02:10:56.483Z,8.57
2019-03-29T02:13:26.116Z,8.62
2019-03-29T02:15:55.678Z,8.68
2019-03-29T02:18:25.056Z,8.64
2019-03-29T02:20:54.399Z,8.70
2019-03-29T02:23:23.963Z,8.60
2019-03-29T02:25:53.661Z,8.68
2019-03-29T02:28:23.103Z,8.55
2019-03-29T02:30:52.765Z,8.62
2019-03-29T02:33:22.122Z,8.65
2019-03-29T02:35:51.888Z,8.67
2019-03-29T02:38:21.330Z,8.66
2019-03-29T02:40:51.026Z,8.67
2019-03-29T02:43:20.847Z,8.70
2019-03-29T02:45:50.175Z,8.70
2019-03-29T02:48:19.530Z,8.68
2019-03-29T02:50:48.885Z,8.68
2019-03-29T02:53:18.351Z,8.68
2019-03-29T02:55:48.054Z,8.70
2019-03-29T02:58:23.833Z,8.69
2019-03-29T03:00:53.282Z,8.73
2019-03-29T03:03:22.893Z,8.74
2019-03-29T03:05:52.250Z,8.68
2019-03-29T03:08:21.607Z,8.72
2019-03-29T03:10:51.019Z,8.75
2019-03-29T03:13:20.382Z,8.70
2019-03-29T03:15:49.878Z,8.73
2019-03-29T03:18:19.288Z,8.72
2019-03-29T03:20:48.781Z,8.76
2019-03-29T03:23:18.148Z,8.75
2019-03-29T03:25:47.675Z,8.72
2019-03-29T03:28:17.144Z,8.75
2019-03-29T03:30:46.578Z,8.75
2019-03-29T03:33:15.974Z,8.74
2019-03-29T03:35:45.402Z,8.72
2019-03-29T03:38:14.985Z,8.67
2019-03-29T03:40:44.444Z,8.70
2019-03-29T03:43:13.876Z,8.74
2019-03-29T03:45:43.262Z,8.73
2019-03-29T03:48:12.774Z,8.71
2019-03-29T03:50:43.627Z,8.63
2019-03-29T03:53:13.368Z,8.69
2019-03-29T03:55:45.682Z,8.71
2019-03-29T03:58:16.671Z,8.68
2019-03-29T04:00:59.209Z,8.61
2019-03-29T04:03:29.056Z,8.66
2019-03-29T04:05:58.673Z,8.43
2019-03-29T04:08:28.556Z,8.67
2019-03-29T04:10:57.976Z,8.61
2019-03-29T04:13:27.801Z,8.61
2019-03-29T04:15:57.398Z,8.62
2019-03-29T04:18:26.900Z,8.66
2019-03-29T04:20:56.358Z,8.67
2019-03-29T04:23:25.710Z,8.61
2019-03-29T04:25:55.201Z,8.43
2019-03-29T04:28:24.595Z,8.59
2019-03-29T04:30:54.031Z,8.61
2019-03-29T04:33:23.442Z,8.49
2019-03-29T04:35:52.871Z,8.56
2019-03-29T04:38:22.236Z,8.62
2019-03-29T04:40:51.678Z,8.65
2019-03-29T04:43:21.253Z,8.65
2019-03-29T04:45:50.661Z,8.67
2019-03-29T04:48:20.136Z,8.60
2019-03-29T04:50:49.550Z,8.65
2019-03-29T04:53:18.997Z,8.48
2019-03-29T04:55:48.366Z,8.59
2019-03-29T04:58:17.761Z,8.64
2019-03-29T05:00:47.241Z,8.58
2019-03-29T05:03:16.684Z,8.63
2019-03-29T05:05:46.203Z,8.67
2019-03-29T05:08:15.558Z,8.71
2019-03-29T05:10:44.931Z,8.62
2019-03-29T05:13:14.738Z,8.85
2019-03-29T05:15:44.630Z,8.86
2019-03-29T05:18:13.975Z,8.90
2019-03-29T05:20:43.686Z,8.89
2019-03-29T05:23:13.223Z,8.91
2019-03-29T05:25:42.635Z,8.92
2019-03-29T05:28:11.976Z,8.91
2019-03-29T05:30:41.707Z,8.89
2019-03-29T05:33:11.082Z,8.85
2019-03-29T05:35:40.752Z,8.85
2019-03-29T05:38:10.198Z,8.89
2019-03-29T05:40:39.561Z,8.94
2019-03-29T05:43:09.051Z,8.90
2019-03-29T05:45:39.590Z,8.93
2019-03-29T05:48:08.984Z,8.94
2019-03-29T05:50:39.272Z,8.96
2019-03-29T05:53:09.701Z,8.97
2019-03-29T05:55:39.111Z,8.95
2019-03-29T05:58:08.636Z,8.96
2019-03-29T06:00:38.065Z,8.96
2019-03-29T06:03:10.833Z,9.01
2019-03-29T06:05:40.471Z,9.07
2019-03-29T06:08:09.914Z,9.09
2019-03-29T06:10:49.029Z,9.13
2019-03-29T06:13:10.463Z,9.16
2019-03-29T06:15:39.828Z,9.13
2019-03-29T06:18:09.201Z,9.12
2019-03-29T06:20:38.534Z,9.15
2019-03-29T06:23:08.125Z,9.18
2019-03-29T06:25:37.538Z,9.24
2019-03-29T06:28:06.961Z,9.22
2019-03-29T06:30:36.461Z,9.21
2019-03-29T06:33:06.009Z,9.27
2019-03-29T06:35:38.524Z,9.31
2019-03-29T06:38:13.259Z,9.42
2019-03-29T06:40:42.646Z,9.50
2019-03-29T06:43:12.051Z,9.57
2019-03-29T06:45:47.977Z,9.59
2019-03-29T06:48:12.606Z,9.67
2019-03-29T06:50:42.262Z,9.92
2019-03-29T06:53:11.722Z,10.08
2019-03-29T06:55:41.154Z,10.32
2019-03-29T06:58:19.091Z,10.39
2019-03-29T07:07:46.671Z,10.64
2019-03-29T07:10:16.042Z,10.70
2019-03-29T07:12:45.488Z,10.81
2019-03-29T07:15:15.078Z,10.90
2019-03-29T07:17:44.675Z,10.92
2019-03-29T07:20:14.248Z,11.05
2019-03-29T07:22:43.603Z,11.26
2019-03-29T07:25:13.150Z,11.36
2019-03-29T07:27:46.680Z,11.57
2019-03-29T07:30:14.396Z,11.85
2019-03-29T07:32:43.862Z,11.84
2019-03-29T07:35:13.441Z,11.61
2019-03-29T07:37:43.027Z,12.02
2019-03-29T07:40:12.860Z,11.90
2019-03-29T07:42:42.210Z,11.55
2019-03-29T07:45:11.810Z,11.68
2019-03-29T07:47:42.013Z,12.14
2019-03-29T07:50:11.750Z,12.15
2019-03-29T07:52:41.222Z,12.13
2019-03-29T07:55:12.160Z,12.12
2019-03-29T07:57:41.814Z,11.93
2019-03-29T08:00:12.527Z,11.95
2019-03-29T08:02:42.235Z,11.95
2019-03-29T08:05:11.735Z,11.89
2019-03-29T08:07:41.279Z,11.69
2019-03-29T08:10:24.094Z,11.93
2019-03-29T08:12:42.099Z,12.22
2019-03-29T08:15:12.215Z,11.74
2019-03-29T08:17:41.642Z,11.92
2019-03-29T08:20:38.038Z,12.19
2019-03-29T08:22:42.568Z,11.83
2019-03-29T08:25:12.207Z,11.95
2019-03-29T08:27:42.721Z,12.39
2019-03-29T08:30:12.563Z,12.71
2019-03-29T08:32:42.080Z,12.41
2019-03-29T08:35:11.646Z,12.35
2019-03-29T08:37:43.150Z,12.31
2019-03-29T08:40:13.163Z,12.40
2019-03-29T08:42:42.576Z,12.25
2019-03-29T08:45:12.188Z,12.25
2019-03-29T08:47:41.863Z,12.05
2019-03-29T08:50:11.464Z,12.31
2019-03-29T08:52:40.889Z,12.31
2019-03-29T08:55:10.484Z,12.38
2019-03-29T08:57:40.168Z,12.38
2019-03-29T09:00:09.862Z,12.37
2019-03-29T09:02:39.441Z,12.56
2019-03-29T09:05:09.638Z,12.69
2019-03-29T09:07:44.862Z,12.52
2019-03-29T09:10:23.658Z,12.65
2019-03-29T09:12:53.098Z,12.79
2019-03-29T09:15:22.926Z,12.90
2019-03-29T09:17:52.440Z,12.90
2019-03-29T09:20:24.121Z,13.00
2019-03-29T09:22:53.665Z,13.24
2019-03-29T09:25:23.545Z,13.34
2019-03-29T09:27:53.204Z,13.14
2019-03-29T09:30:28.811Z,13.27
2019-03-29T09:32:58.665Z,13.23
2019-03-29T09:35:28.359Z,13.11
2019-03-29T09:37:57.819Z,13.11
2019-03-29T09:40:27.359Z,13.45
2019-03-29T09:43:07.123Z,13.45
2019-03-29T09:45:29.339Z,13.20
2019-03-29T09:47:58.788Z,13.61
2019-03-29T09:50:28.376Z,13.15
2019-03-29T09:53:01.188Z,13.15
2019-03-29T09:55:30.136Z,13.43
2019-03-29T09:57:59.644Z,13.38
2019-03-29T10:00:29.426Z,13.76
2019-03-29T10:02:58.974Z,13.40
2019-03-29T10:05:31.171Z,13.63
2019-03-29T10:07:59.569Z,13.52
2019-03-29T10:10:28.924Z,13.07
2019-03-29T10:12:58.531Z,13.25
2019-03-29T10:15:28.242Z,13.35
2019-03-29T10:17:57.674Z,13.70
2019-03-29T10:20:27.472Z,13.67
2019-03-29T10:22:56.785Z,13.23
2019-03-29T10:25:26.162Z,13.57
2019-03-29T10:27:55.600Z,13.61
2019-03-29T10:30:46.267Z,13.75
2019-03-29T10:33:14.091Z,13.91
2019-03-29T10:35:52.257Z,13.71
2019-03-29T10:38:17.957Z,13.45
2019-03-29T10:40:46.327Z,13.56
2019-03-29T10:43:15.876Z,13.98
2019-03-29T10:45:45.283Z,13.96
2019-03-29T10:48:14.782Z,14.17
2019-03-29T10:50:44.158Z,14.19
2019-03-29T10:53:13.821Z,14.20
2019-03-29T10:55:43.548Z,14.34
2019-03-29T10:58:13.284Z,13.67
2019-03-29T11:00:42.807Z,13.93
2019-03-29T11:03:12.384Z,13.74
2019-03-29T11:05:41.854Z,13.53
2019-03-29T11:08:12.364Z,13.56
2019-03-29T11:10:42.097Z,13.66
2019-03-29T11:13:13.721Z,13.63
2019-03-29T11:15:42.803Z,13.61
2019-03-29T11:18:12.345Z,13.71
2019-03-29T11:20:41.924Z,13.69
2019-03-29T11:23:11.886Z,14.03
2019-03-29T11:25:41.325Z,13.72
2019-03-29T11:28:10.744Z,13.88
2019-03-29T11:30:42.771Z,13.90
2019-03-29T11:33:11.389Z,13.93
2019-03-29T11:35:40.817Z,14.24
2019-03-29T11:38:10.295Z,13.98
2019-03-29T11:40:39.989Z,13.94
2019-03-29T11:43:09.526Z,14.05
2019-03-29T11:45:39.118Z,13.83
2019-03-29T11:48:09.603Z,13.88
2019-03-29T11:50:39.376Z,14.21
2019-03-29T11:53:08.912Z,14.05
2019-03-29T11:55:38.281Z,14.33
2019-03-29T11:58:08.231Z,14.44
2019-03-29T12:00:39.132Z,14.42
2019-03-29T12:03:09.371Z,14.30
2019-03-29T12:05:39.401Z,14.40
2019-03-29T12:08:09.291Z,14.30
2019-03-29T12:10:38.721Z,14.58
2019-03-29T12:13:10.026Z,14.37
2019-03-29T12:15:39.695Z,14.68
2019-03-29T12:18:09.326Z,14.42
2019-03-29T12:20:38.827Z,14.57
2019-03-29T12:23:08.230Z,14.19
2019-03-29T12:25:37.601Z,14.53
2019-03-29T12:28:07.399Z,14.65
2019-03-29T12:30:37.018Z,14.41
2019-03-29T12:33:06.468Z,14.53
2019-03-29T12:35:35.966Z,14.54
2019-03-29T12:38:05.994Z,14.77
2019-03-29T12:41:23.572Z,14.51
2019-03-29T12:43:55.743Z,14.60
2019-03-29T12:46:24.579Z,14.55
2019-03-29T12:48:54.049Z,15.13
2019-03-29T12:51:23.511Z,15.03
2019-03-29T12:53:53.015Z,15.21
2019-03-29T12:56:22.491Z,15.05
2019-03-29T12:58:52.381Z,15.34
2019-03-29T13:01:22.148Z,15.19
2019-03-29T13:03:51.543Z,15.30
2019-03-29T13:06:21.002Z,15.43
2019-03-29T13:08:50.928Z,15.24
2019-03-29T13:11:20.331Z,15.33
2019-03-29T13:13:51.366Z,15.31
2019-03-29T13:16:20.916Z,15.22
2019-03-29T13:18:53.613Z,15.31
2019-03-29T13:21:21.535Z,15.58
2019-03-29T13:23:51.023Z,15.37
2019-03-29T13:26:20.685Z,15.22
2019-03-29T13:28:50.055Z,15.24
2019-03-29T13:31:19.598Z,15.59
2019-03-29T13:33:50.144Z,15.64
2019-03-29T13:36:19.658Z,15.21
2019-03-29T13:38:49.144Z,15.50
2019-03-29T13:41:19.045Z,15.27
2019-03-29T13:43:48.505Z,15.43
2019-03-29T13:46:18.058Z,15.67
2019-03-29T13:48:48.684Z,15.64
2019-03-29T13:51:18.110Z,15.59
2019-03-29T13:53:58.830Z,15.72
2019-03-29T13:56:38.837Z,15.97
2019-03-29T13:59:08.419Z,15.96
2019-03-29T14:05:07.251Z,15.68
2019-03-29T14:07:36.790Z,15.96
2019-03-29T14:10:07.464Z,16.22
2019-03-29T14:12:37.135Z,15.93
2019-03-29T14:15:09.352Z,15.77
2019-03-29T14:17:39.041Z,16.37
2019-03-29T14:20:10.488Z,16.50
2019-03-29T14:22:44.838Z,15.97
2019-03-29T14:25:17.602Z,16.21
2019-03-29T14:27:51.759Z,16.37
2019-03-29T14:30:22.323Z,16.46
2019-03-29T14:32:52.034Z,16.53
2019-03-29T14:35:24.490Z,16.53
2019-03-29T14:37:54.621Z,16.31
2019-03-29T14:40:26.730Z,16.44
2019-03-29T14:42:56.446Z,16.40
2019-03-29T14:45:27.379Z,16.55
2019-03-29T14:47:56.733Z,16.60
2019-03-29T14:50:26.292Z,16.52
2019-03-29T14:52:56.323Z,16.25
2019-03-29T14:55:25.678Z,16.77
2019-03-29T14:57:55.104Z,17.09
2019-03-29T15:00:50.522Z,16.72
2019-03-29T15:03:20.732Z,16.09
2019-03-29T15:05:50.343Z,16.70
2019-03-29T15:08:20.522Z,16.88
2019-03-29T15:10:49.957Z,16.68
2019-03-29T15:13:19.529Z,17.02
2019-03-29T15:15:48.993Z,17.36
2019-03-29T15:18:18.361Z,17.08
2019-03-29T15:20:53.856Z,17.05
2019-03-29T15:23:19.039Z,17.21
2019-03-29T15:25:48.393Z,17.50
2019-03-29T15:28:18.949Z,17.47
2019-03-29T15:30:48.453Z,17.04
2019-03-29T15:33:17.912Z,16.97
2019-03-29T15:35:47.309Z,17.58
2019-03-29T15:38:16.901Z,17.10
2019-03-29T15:40:46.771Z,17.52
2019-03-29T15:43:16.181Z,17.51
2019-03-29T15:45:45.701Z,17.57
2019-03-29T15:48:15.246Z,17.24
2019-03-29T15:50:44.783Z,17.65
2019-03-29T15:59:31.032Z,17.83
2019-03-29T16:02:00.583Z,18.75
2019-03-29T16:04:29.977Z,19.10
2019-03-29T16:06:59.791Z,22.59
2019-03-29T16:09:29.267Z,22.78
2019-03-29T16:11:58.728Z,22.27
2019-03-29T16:14:31.597Z,22.89
2019-03-29T16:22:58.222Z,23.32
2019-03-29T16:26:06.848Z,24.02
2019-03-29T16:31:58.765Z,24.02
2019-03-29T16:34:28.259Z,22.50
2019-03-29T16:36:57.600Z,24.80
2019-03-29T16:39:26.972Z,24.57
2019-03-29T16:41:56.491Z,17.93
2019-03-29T16:44:25.857Z,17.42
2019-03-29T16:46:55.352Z,17.01
2019-03-29T16:49:24.758Z,16.16
2019-03-29T16:51:54.350Z,15.71
2019-03-29T16:54:23.744Z,15.89
2019-03-29T16:56:53.295Z,15.94
2019-03-29T16:59:22.983Z,15.89
2019-03-29T17:01:52.613Z,16.07
2019-03-29T17:04:21.985Z,15.83
2019-03-29T17:06:51.495Z,15.54
2019-03-29T17:09:20.897Z,15.23
2019-03-29T17:11:50.615Z,15.44
2019-03-29T17:14:20.500Z,15.29
2019-03-29T17:27:16.570Z,15.00
2019-03-29T17:29:46.102Z,14.67
2019-03-29T17:32:17.328Z,15.17
2019-03-29T17:34:46.679Z,15.14
2019-03-29T17:37:16.133Z,15.11
2019-03-29T17:39:45.901Z,15.07
2019-03-29T17:42:15.254Z,14.94
2019-03-29T17:44:46.195Z,14.95
2019-03-29T17:47:15.613Z,14.39
2019-03-29T17:49:44.967Z,13.90
2019-03-29T17:52:14.320Z,14.38
2019-03-29T17:54:43.716Z,14.25
2019-03-29T17:57:13.180Z,13.84
2019-03-29T17:59:42.533Z,14.27
2019-03-29T18:02:11.971Z,13.99
2019-03-29T18:04:41.328Z,13.14
2019-03-29T18:07:10.776Z,13.02
2019-03-29T18:09:40.266Z,13.00
2019-03-29T18:12:11.363Z,13.69
2019-03-29T18:14:40.697Z,13.70
2019-03-29T18:17:10.143Z,13.59
2019-03-29T18:19:39.513Z,13.38
2019-03-29T18:22:08.998Z,13.16
2019-03-29T18:24:38.632Z,12.40
2019-03-29T18:27:08.044Z,13.02
2019-03-29T18:29:37.420Z,13.16
2019-03-29T18:32:06.991Z,13.01
2019-03-29T18:34:38.095Z,12.99
2019-03-29T18:37:07.808Z,12.96
2019-03-29T18:39:38.465Z,12.43
2019-03-29T18:42:07.827Z,12.72
2019-03-29T18:44:37.301Z,12.49
2019-03-29T18:47:07.603Z,12.02
2019-03-29T18:49:36.964Z,12.40
2019-03-29T18:52:06.416Z,12.58
2019-03-29T18:54:35.843Z,12.40
2019-03-29T18:57:05.387Z,12.35
2019-03-29T18:59:34.737Z,12.24
2019-03-29T19:02:04.320Z,12.11
2019-03-29T19:04:33.692Z,12.01
2019-03-29T19:07:03.143Z,12.08
2019-03-29T19:09:32.614Z,11.90
2019-03-29T19:12:02.490Z,11.50
2019-03-29T19:14:31.932Z,11.65
2019-03-29T19:17:01.316Z,11.63
2019-03-29T19:19:31.178Z,11.67
2019-03-29T19:22:00.659Z,11.67
2019-03-29T19:24:30.048Z,11.59
2019-03-29T19:26:59.585Z,11.42
2019-03-29T19:29:29.035Z,11.48
2019-03-29T19:31:58.422Z,11.19
2019-03-29T19:34:28.074Z,11.19
2019-03-29T19:36:57.441Z,11.21
2019-03-29T19:39:26.782Z,11.21
2019-03-29T19:41:56.195Z,10.95
2019-03-29T19:44:25.588Z,10.95
2019-03-29T19:46:55.015Z,10.99
2019-03-29T19:49:24.444Z,10.86
2019-03-29T19:51:53.867Z,10.88
2019-03-29T19:54:23.536Z,10.78
2019-03-29T19:56:53.080Z,10.72
2019-03-29T19:59:22.583Z,10.73
2019-03-29T20:01:52.067Z,10.50
2019-03-29T20:04:21.499Z,10.51
2019-03-29T20:06:50.878Z,10.49
2019-03-29T20:09:20.358Z,10.52
2019-03-29T20:11:53.208Z,10.33
2019-03-29T20:14:23.548Z,10.30
2019-03-29T20:16:55.340Z,10.23
2019-03-29T20:19:25.011Z,10.18
2019-03-29T20:21:54.388Z,10.19
2019-03-29T20:24:24.870Z,10.18
2019-03-29T20:26:54.351Z,10.06
2019-03-29T20:29:23.957Z,9.92
2019-03-29T20:31:53.409Z,9.45
2019-03-29T20:34:23.011Z,9.73
2019-03-29T20:36:56.684Z,9.77
2019-03-29T20:39:27.421Z,9.50
2019-03-29T20:41:56.855Z,9.69
2019-03-29T20:44:26.994Z,9.61
2019-03-29T20:46:57.642Z,9.66
2019-03-29T20:49:27.038Z,9.58
2019-03-29T20:51:56.573Z,9.54
2019-03-29T20:54:26.118Z,9.43
2019-03-29T20:56:55.530Z,8.64
2019-03-29T20:59:30.511Z,8.93
2019-03-29T21:02:00.121Z,8.92
2019-03-29T21:04:29.546Z,9.10
2019-03-29T21:06:59.109Z,9.17
2019-03-29T21:09:28.725Z,9.17
2019-03-29T21:11:58.247Z,9.12
2019-03-29T21:14:27.685Z,8.84
2019-03-29T21:16:57.004Z,9.01
2019-03-29T21:19:28.405Z,8.95
2019-03-29T21:21:57.834Z,8.93
2019-03-29T21:24:27.312Z,8.88
2019-03-29T21:26:56.789Z,8.77
2019-03-29T21:29:26.394Z,8.87
2019-03-29T21:31:56.277Z,8.66
2019-03-29T21:34:25.830Z,8.62
2019-03-29T21:36:55.232Z,8.57
2019-03-29T21:39:24.707Z,8.37
2019-03-29T21:41:54.921Z,8.40
2019-03-29T21:44:24.458Z,8.42
2019-03-29T21:55:40.955Z,8.31
2019-03-29T21:58:10.986Z,8.23
2019-03-29T22:00:40.335Z,8.15
2019-03-29T22:03:09.703Z,8.11
2019-03-29T22:05:39.170Z,8.09
2019-03-29T22:08:11.914Z,8.03
2019-03-29T22:10:41.439Z,7.97
2019-03-29T22:13:10.916Z,7.98
2019-03-29T22:15:40.468Z,7.95
2019-03-29T22:18:10.086Z,7.85
2019-03-29T22:20:39.431Z,7.78
2019-03-29T22:23:08.864Z,7.80
2019-03-29T22:25:38.397Z,7.73
2019-03-29T22:28:11.126Z,7.72
2019-03-29T22:30:41.993Z,7.69
2019-03-29T22:33:12.214Z,7.66
2019-03-29T22:35:41.821Z,7.57
2019-03-29T22:38:11.135Z,7.55
2019-03-29T22:40:40.848Z,6.83
2019-03-29T22:43:10.840Z,7.18
2019-03-29T22:45:40.397Z,7.36
2019-03-29T22:48:09.852Z,7.32
2019-03-29T22:50:39.316Z,7.42
2019-03-29T22:55:43.749Z,7.35
2019-03-29T22:58:20.578Z,7.16
2019-03-29T23:00:55.935Z,7.13
2019-03-29T23:03:26.630Z,7.04
2019-03-29T23:05:56.392Z,7.04
2019-03-29T23:08:25.889Z,7.02
2019-03-29T23:10:56.628Z,6.98
2019-03-29T23:13:28.914Z,6.94
2019-03-29T23:15:58.806Z,6.92
2019-03-29T23:18:29.005Z,6.89
2019-03-29T23:23:34.338Z,6.86
2019-03-29T23:26:03.685Z,6.79
2019-03-29T23:28:33.041Z,6.80
2019-03-29T23:31:05.486Z,6.79
2019-03-29T23:33:33.563Z,6.70
2019-03-29T23:36:02.886Z,6.68
2019-03-29T23:38:32.329Z,6.63
2019-03-29T23:41:01.691Z,6.55
2019-03-29T23:43:31.164Z,6.49
2019-03-29T23:46:00.833Z,6.45
2019-03-29T23:48:30.527Z,6.45
2019-03-29T23:51:00.413Z,6.39
2019-03-29T23:53:29.766Z,6.32
2019-03-29T23:55:59.132Z,6.30
2019-03-29T23:58:28.538Z,6.31
